Time;durP1;ratioP1;P1;durP2;ratioP2;P2;SDS_P1;SDS_P2;PMS_P1;PMS_P2;Temp;Humidity;BMP_temperature;BMP_pressure;BME280_temperature;BME280_humidity;BME280_pressure;Samples;Min_cycle;Max_cycle;Signal;HPM_P1;HPM_P2
2022/04/05 00:01:51;;;;;;;7.80;6.07;;;8.60;99.90;;;;;;5046665;28;20475;-71
2022/04/05 00:04:18;;;;;;;8.70;6.97;;;8.60;99.90;;;;;;5052009;28;20447;-71
2022/04/05 00:06:45;;;;;;;11.50;5.80;;;8.70;99.90;;;;;;5043039;28;20464;-72
2022/04/05 00:09:11;;;;;;;9.37;5.37;;;8.70;99.90;;;;;;5052954;28;20429;-73
2022/04/05 00:11:39;;;;;;;9.83;5.07;;;8.70;99.90;;;;;;5043307;28;20479;-72
2022/04/05 00:14:08;;;;;;;5.57;4.27;;;8.70;99.90;;;;;;5046421;28;20551;-72
2022/04/05 00:16:35;;;;;;;6.93;5.07;;;8.70;99.90;;;;;;5040872;28;20430;-72
2022/04/05 00:19:02;;;;;;;8.30;5.60;;;8.60;99.90;;;;;;5047263;28;20463;-73
2022/04/05 00:21:29;;;;;;;8.57;5.80;;;8.70;99.90;;;;;;5045921;28;20567;-71
2022/04/05 00:23:55;;;;;;;8.03;4.93;;;8.80;99.90;;;;;;5044151;28;20455;-72
2022/04/05 00:26:22;;;;;;;10.47;7.60;;;8.80;99.90;;;;;;5047294;28;20538;-69
2022/04/05 00:28:50;;;;;;;8.43;5.73;;;8.80;99.90;;;;;;5047373;28;20454;-70
2022/04/05 00:31:17;;;;;;;12.30;8.20;;;8.90;99.90;;;;;;5047493;28;20456;-71
2022/04/05 00:33:43;;;;;;;8.97;5.80;;;8.80;99.90;;;;;;5045019;28;21625;-71
2022/04/05 00:36:10;;;;;;;9.30;6.03;;;8.80;99.90;;;;;;5044019;28;20531;-72
2022/04/05 00:38:37;;;;;;;10.10;5.53;;;8.90;99.90;;;;;;5047981;28;20585;-70
2022/04/05 00:41:03;;;;;;;14.90;8.97;;;8.90;99.90;;;;;;5048548;28;20502;-71
2022/04/05 00:43:30;;;;;;;13.90;5.90;;;8.90;99.90;;;;;;5043574;28;20516;-70
2022/04/05 00:45:58;;;;;;;13.43;6.47;;;8.90;99.90;;;;;;5045425;28;20437;-72
2022/04/05 00:48:30;;;;;;;11.33;7.03;;;9.00;99.90;;;;;;5044179;28;20458;-70
2022/04/05 00:50:57;;;;;;;12.43;6.87;;;9.00;99.90;;;;;;5041770;28;20514;-72
2022/04/05 00:53:25;;;;;;;13.17;6.90;;;9.00;99.90;;;;;;5048629;28;21007;-71
2022/04/05 00:55:54;;;;;;;9.13;5.63;;;9.10;99.90;;;;;;5043793;28;20459;-72
2022/04/05 00:58:24;;;;;;;12.43;7.53;;;9.10;99.90;;;;;;5039682;28;20438;-71
2022/04/05 01:00:52;;;;;;;15.23;8.67;;;9.10;99.90;;;;;;5043406;28;20453;-72
2022/04/05 01:03:22;;;;;;;19.83;11.57;;;9.10;99.90;;;;;;5049798;28;20458;-73
2022/04/05 01:05:50;;;;;;;10.67;6.80;;;9.00;99.90;;;;;;5036983;28;20466;-72
2022/04/05 01:08:22;;;;;;;11.73;7.37;;;9.10;99.90;;;;;;5043651;28;20769;-72
2022/04/05 01:10:51;;;;;;;6.10;4.30;;;9.10;99.90;;;;;;5042277;28;20935;-73
2022/04/05 01:13:18;;;;;;;2.93;1.57;;;9.00;99.90;;;;;;5043437;28;20474;-72
2022/04/05 01:15:45;;;;;;;3.90;1.77;;;8.80;99.90;;;;;;5043700;28;20434;-73
2022/04/05 01:18:13;;;;;;;1.87;1.33;;;8.70;99.90;;;;;;5045223;28;20989;-71
2022/04/05 01:20:43;;;;;;;2.20;1.57;;;8.70;99.90;;;;;;5046883;28;20591;-73
2022/04/05 01:23:10;;;;;;;1.67;1.27;;;8.60;99.90;;;;;;5049116;28;20458;-72
2022/04/05 01:25:43;;;;;;;1.90;1.20;;;8.60;99.90;;;;;;5047891;28;20429;-72
2022/04/05 01:28:12;;;;;;;1.03;0.83;;;8.50;99.90;;;;;;5050770;28;20458;-71
2022/04/05 01:30:39;;;;;;;1.10;0.90;;;8.60;99.90;;;;;;5047091;28;20444;-72
2022/04/05 01:33:08;;;;;;;1.20;1.10;;;8.50;99.90;;;;;;5049128;28;20913;-73
2022/04/05 01:35:35;;;;;;;2.37;1.50;;;8.50;99.90;;;;;;5045095;28;20459;-70
2022/04/05 01:38:02;;;;;;;3.40;1.40;;;8.60;99.90;;;;;;5052520;28;20524;-72
2022/04/05 01:40:29;;;;;;;1.07;0.90;;;8.60;99.90;;;;;;5046165;28;20555;-72
2022/04/05 01:42:58;;;;;;;2.73;1.20;;;8.60;99.90;;;;;;5052016;28;20466;-72
2022/04/05 01:45:24;;;;;;;1.43;1.17;;;8.50;99.90;;;;;;5043308;28;20506;-70
2022/04/05 01:47:51;;;;;;;1.90;1.23;;;8.60;99.90;;;;;;5046982;28;20636;-72
2022/04/05 01:50:18;;;;;;;2.03;1.70;;;8.70;99.90;;;;;;5049289;28;20493;-71
2022/04/05 01:52:45;;;;;;;1.30;1.00;;;8.70;99.90;;;;;;5051164;28;20466;-70
2022/04/05 01:55:11;;;;;;;2.07;1.20;;;8.70;99.90;;;;;;5052434;28;20434;-69
2022/04/05 01:57:38;;;;;;;1.93;1.20;;;8.60;99.90;;;;;;5047581;28;20440;-72
2022/04/05 02:00:14;;;;;;;1.60;0.80;;;8.60;99.90;;;;;;5044463;28;20555;-72
2022/04/05 02:02:40;;;;;;;2.80;1.83;;;8.70;99.90;;;;;;5044656;28;20530;-69
2022/04/05 02:05:08;;;;;;;1.57;0.97;;;8.70;99.90;;;;;;5049955;28;20563;-71
2022/04/05 02:07:35;;;;;;;2.53;2.33;;;8.70;99.90;;;;;;5040891;28;20833;-71
2022/04/05 02:10:05;;;;;;;2.47;1.20;;;8.70;99.90;;;;;;5040445;28;20526;-72
2022/04/05 02:12:31;;;;;;;1.30;1.03;;;8.70;99.90;;;;;;5045981;28;20512;-71
2022/04/05 02:14:58;;;;;;;3.33;1.17;;;8.70;99.90;;;;;;5045787;28;23485;-71
2022/04/05 02:17:26;;;;;;;1.20;0.93;;;8.70;99.90;;;;;;5048081;28;20907;-72
2022/04/05 02:19:54;;;;;;;1.20;1.10;;;8.80;99.90;;;;;;5046367;28;20525;-72
2022/04/05 02:22:21;;;;;;;2.00;1.10;;;8.80;99.90;;;;;;5051803;28;20822;-72
2022/04/05 02:24:48;;;;;;;2.00;1.67;;;8.70;99.90;;;;;;5048593;28;20888;-72
2022/04/05 02:27:14;;;;;;;1.30;1.20;;;8.80;99.90;;;;;;5039826;28;20430;-72
2022/04/05 02:29:41;;;;;;;1.43;1.10;;;8.70;99.90;;;;;;5047194;28;20464;-70
2022/04/05 02:32:08;;;;;;;1.43;1.00;;;8.70;99.90;;;;;;5046589;28;20549;-71
2022/04/05 02:34:36;;;;;;;1.33;1.17;;;8.60;99.90;;;;;;5043691;28;20460;-71
2022/04/05 02:37:05;;;;;;;3.20;1.40;;;8.70;99.90;;;;;;5049849;28;20876;-71
2022/04/05 02:39:31;;;;;;;1.93;1.10;;;8.60;99.90;;;;;;5043937;28;20434;-72
2022/04/05 02:41:58;;;;;;;2.50;1.80;;;8.70;99.90;;;;;;5044471;28;20975;-71
2022/04/05 02:44:25;;;;;;;2.83;1.50;;;8.80;99.90;;;;;;5044557;28;21223;-72
2022/04/05 02:46:51;;;;;;;2.83;1.57;;;8.80;99.90;;;;;;5049035;28;20730;-72
2022/04/05 02:49:18;;;;;;;2.03;1.23;;;8.80;99.90;;;;;;5040884;28;20544;-69
2022/04/05 02:51:47;;;;;;;2.50;1.60;;;8.70;99.90;;;;;;5052943;28;20457;-72
2022/04/05 02:54:14;;;;;;;2.10;1.40;;;8.80;99.90;;;;;;5049638;28;20421;-72
2022/04/05 02:56:40;;;;;;;2.60;1.70;;;8.80;99.90;;;;;;5051367;28;20475;-71
2022/04/05 02:59:07;;;;;;;4.07;1.97;;;8.70;99.90;;;;;;5047763;28;20433;-70
2022/04/05 03:01:33;;;;;;;2.40;2.00;;;8.90;99.90;;;;;;5047825;28;20446;-73
2022/04/05 03:04:00;;;;;;;4.40;2.33;;;8.80;99.90;;;;;;5046862;28;20481;-73
2022/04/05 03:06:27;;;;;;;1.90;1.70;;;8.90;99.90;;;;;;5042011;28;24765;-73
2022/04/05 03:08:56;;;;;;;2.47;1.50;;;8.90;99.90;;;;;;5046020;28;20536;-73
2022/04/05 03:11:23;;;;;;;3.30;1.70;;;8.90;99.90;;;;;;5045686;28;20900;-73
2022/04/05 03:13:49;;;;;;;2.10;1.50;;;8.90;99.90;;;;;;5054692;28;21216;-73
2022/04/05 03:16:16;;;;;;;2.43;1.63;;;8.90;99.90;;;;;;5054868;28;20999;-73
2022/04/05 03:18:45;;;;;;;2.90;1.77;;;8.80;99.90;;;;;;5051058;28;20429;-73
2022/04/05 03:21:12;;;;;;;5.33;2.10;;;8.80;99.90;;;;;;5053779;28;20986;-74
2022/04/05 03:23:39;;;;;;;3.63;2.27;;;8.80;99.90;;;;;;5052559;28;20989;-74
2022/04/05 03:26:08;;;;;;;3.60;2.90;;;8.80;99.90;;;;;;5047148;28;20493;-74
2022/04/05 03:28:34;;;;;;;2.93;1.90;;;8.80;99.90;;;;;;5053536;28;20429;-74
2022/04/05 03:31:01;;;;;;;3.60;2.20;;;8.80;99.90;;;;;;5054514;28;20527;-74
2022/04/05 03:33:28;;;;;;;3.90;2.77;;;8.70;99.90;;;;;;5052718;28;20478;-74
2022/04/05 03:35:56;;;;;;;2.10;1.87;;;8.80;99.90;;;;;;5051748;28;20458;-74
2022/04/05 03:38:23;;;;;;;3.77;2.40;;;8.70;99.90;;;;;;5051329;28;20433;-75
2022/04/05 03:40:53;;;;;;;3.23;1.50;;;8.70;99.90;;;;;;5045799;28;20839;-74
2022/04/05 03:43:23;;;;;;;2.20;1.93;;;8.70;99.90;;;;;;5048499;28;20955;-74
2022/04/05 03:45:50;;;;;;;4.60;3.10;;;8.60;99.90;;;;;;5046181;28;20455;-74
2022/04/05 03:48:17;;;;;;;3.10;1.70;;;8.70;99.90;;;;;;5054326;28;20441;-74
2022/04/05 03:50:44;;;;;;;2.33;1.90;;;8.80;99.90;;;;;;5049967;28;20465;-74
2022/04/05 03:53:10;;;;;;;3.40;2.07;;;8.80;99.90;;;;;;5047452;28;20469;-74
2022/04/05 03:55:37;;;;;;;2.83;2.20;;;8.70;99.90;;;;;;5045703;28;21124;-74
2022/04/05 03:58:04;;;;;;;2.27;1.97;;;8.70;99.90;;;;;;5056978;28;21099;-74
2022/04/05 04:00:33;;;;;;;3.60;2.07;;;8.70;99.90;;;;;;5050905;28;20486;-75
2022/04/05 04:02:59;;;;;;;2.03;1.43;;;8.70;99.90;;;;;;5045211;28;20440;-73
2022/04/05 04:05:26;;;;;;;3.00;1.73;;;8.80;99.90;;;;;;5048664;28;20458;-74
2022/04/05 04:07:52;;;;;;;3.13;1.50;;;8.80;99.90;;;;;;5048138;28;20908;-73
2022/04/05 04:10:19;;;;;;;3.33;2.33;;;8.70;99.90;;;;;;5042424;28;20482;-73
2022/04/05 04:12:46;;;;;;;5.30;2.43;;;8.60;99.90;;;;;;5051106;28;20525;-73
2022/04/05 04:15:12;;;;;;;1.50;1.37;;;8.70;99.90;;;;;;5048335;28;20486;-73
2022/04/05 04:17:40;;;;;;;4.33;2.40;;;8.70;99.90;;;;;;5051327;28;20617;-73
2022/04/05 04:20:08;;;;;;;1.60;1.40;;;8.80;99.90;;;;;;5052038;28;20496;-71
2022/04/05 04:22:34;;;;;;;3.60;1.93;;;8.80;99.90;;;;;;5049535;28;20482;-71
2022/04/05 04:25:01;;;;;;;4.17;2.03;;;8.70;99.90;;;;;;5053401;28;20482;-72
2022/04/05 04:27:28;;;;;;;2.97;2.53;;;8.70;99.90;;;;;;5046761;28;20925;-72
2022/04/05 04:29:54;;;;;;;3.30;2.10;;;8.70;99.90;;;;;;5050457;28;20491;-73
2022/04/05 04:32:21;;;;;;;1.93;1.73;;;8.70;99.90;;;;;;5042443;28;20934;-71
2022/04/05 04:34:49;;;;;;;2.73;2.00;;;8.80;99.90;;;;;;5049263;28;20610;-71
2022/04/05 04:37:16;;;;;;;5.03;3.00;;;8.80;99.90;;;;;;5041260;28;20573;-71
2022/04/05 04:39:46;;;;;;;6.20;3.93;;;8.80;99.90;;;;;;5050219;28;20534;-69
2022/04/05 04:42:13;;;;;;;6.33;3.90;;;8.80;99.90;;;;;;5044903;28;20464;-70
2022/04/05 04:44:40;;;;;;;3.90;3.30;;;8.90;99.90;;;;;;5052093;28;20466;-71
2022/04/05 04:47:07;;;;;;;6.20;4.30;;;9.00;99.90;;;;;;5052643;28;20841;-70
2022/04/05 04:49:34;;;;;;;7.83;4.33;;;9.00;99.90;;;;;;5054208;28;20532;-71
2022/04/05 04:52:02;;;;;;;8.37;4.30;;;9.00;99.90;;;;;;5054107;28;20438;-72
2022/04/05 04:54:29;;;;;;;7.37;3.77;;;9.00;99.90;;;;;;5057653;28;20896;-70
2022/04/05 04:56:56;;;;;;;7.57;5.10;;;9.00;99.90;;;;;;5057376;28;20473;-72
2022/04/05 04:59:23;;;;;;;8.30;3.83;;;9.10;99.90;;;;;;5056547;28;20455;-70
2022/04/05 05:01:50;;;;;;;6.60;4.77;;;9.00;99.90;;;;;;5057733;28;20486;-71
2022/04/05 05:04:16;;;;;;;6.73;3.70;;;8.90;99.90;;;;;;5054620;28;20429;-72
2022/04/05 05:06:43;;;;;;;7.00;3.70;;;8.90;99.90;;;;;;5055227;28;20489;-70
2022/04/05 05:09:11;;;;;;;4.83;3.47;;;8.90;99.90;;;;;;5022984;28;20478;-71
2022/04/05 05:11:38;;;;;;;6.63;3.03;;;9.00;99.90;;;;;;5054092;28;20544;-72
2022/04/05 05:14:05;;;;;;;7.80;3.90;;;8.90;99.90;;;;;;5055348;28;21482;-71
2022/04/05 05:16:33;;;;;;;3.20;2.90;;;9.00;99.90;;;;;;5058548;28;20462;-71
2022/04/05 05:19:00;;;;;;;4.37;3.07;;;9.10;99.90;;;;;;5054084;28;20462;-71
2022/04/05 05:21:27;;;;;;;7.57;4.57;;;9.20;99.90;;;;;;5062027;28;20638;-72
2022/04/05 05:23:53;;;;;;;6.73;3.77;;;9.10;99.90;;;;;;5057239;28;20433;-70
2022/04/05 05:26:21;;;;;;;7.37;5.83;;;9.10;99.90;;;;;;5057396;28;20854;-71
2022/04/05 05:28:48;;;;;;;10.80;4.27;;;9.10;99.90;;;;;;5058287;28;20451;-71
2022/04/05 05:31:15;;;;;;;6.43;4.40;;;9.20;99.90;;;;;;5058412;28;20474;-71
2022/04/05 05:33:41;;;;;;;6.10;5.50;;;9.10;99.90;;;;;;5052424;28;20458;-71
2022/04/05 05:36:08;;;;;;;6.03;3.80;;;9.10;99.90;;;;;;5056998;28;20574;-70
2022/04/05 05:38:35;;;;;;;5.60;3.90;;;9.20;99.90;;;;;;5051373;28;20467;-71
2022/04/05 05:41:02;;;;;;;5.23;3.03;;;9.20;99.90;;;;;;5060103;28;20486;-72
2022/04/05 05:43:31;;;;;;;6.50;4.53;;;9.10;99.90;;;;;;5060596;28;20530;-72
2022/04/05 05:45:58;;;;;;;7.93;6.30;;;9.20;99.90;;;;;;5055434;28;20466;-73
2022/04/05 05:48:24;;;;;;;7.97;4.33;;;9.20;99.90;;;;;;5059036;28;20455;-72
2022/04/05 05:50:51;;;;;;;7.20;5.10;;;9.10;99.90;;;;;;5053673;28;20513;-73
2022/04/05 05:53:18;;;;;;;8.07;5.90;;;9.20;99.90;;;;;;5049260;28;20515;-72
2022/04/05 05:55:44;;;;;;;7.47;5.37;;;9.30;99.90;;;;;;5057007;28;20523;-71
2022/04/05 05:58:11;;;;;;;7.60;4.70;;;9.20;99.90;;;;;;5054702;28;20554;-72
2022/04/05 06:00:39;;;;;;;7.87;5.53;;;9.20;99.90;;;;;;5056466;28;20982;-72
2022/04/05 06:03:06;;;;;;;7.53;5.10;;;9.30;99.90;;;;;;5049664;28;21053;-71
2022/04/05 06:05:33;;;;;;;10.67;6.93;;;9.30;99.90;;;;;;5057937;28;20458;-73
2022/04/05 06:08:00;;;;;;;14.67;6.37;;;9.40;99.90;;;;;;5046771;28;20433;-71
2022/04/05 06:10:26;;;;;;;9.80;5.80;;;9.40;99.90;;;;;;5042850;28;20926;-72
2022/04/05 06:12:55;;;;;;;16.00;7.60;;;9.40;99.90;;;;;;5049421;28;20438;-73
2022/04/05 06:15:22;;;;;;;10.30;5.87;;;9.40;99.90;;;;;;5053913;28;20442;-73
2022/04/05 06:17:50;;;;;;;8.03;5.03;;;9.50;99.90;;;;;;5048763;28;20473;-72
2022/04/05 06:20:19;;;;;;;7.77;5.27;;;9.40;99.90;;;;;;5048712;28;20529;-73
2022/04/05 06:22:48;;;;;;;6.67;6.07;;;9.40;99.90;;;;;;5055580;28;20470;-74
2022/04/05 06:25:17;;;;;;;10.70;5.60;;;9.50;99.90;;;;;;5057325;28;20433;-72
2022/04/05 06:27:44;;;;;;;7.97;5.83;;;9.50;99.90;;;;;;5052580;28;20458;-73
2022/04/05 06:30:12;;;;;;;6.23;4.83;;;9.70;99.90;;;;;;5045128;28;20881;-72
2022/04/05 06:32:39;;;;;;;6.80;4.23;;;9.60;99.90;;;;;;5048948;28;20556;-73
2022/04/05 06:35:09;;;;;;;6.00;4.07;;;9.70;99.90;;;;;;5050063;28;20479;-71
2022/04/05 06:37:37;;;;;;;6.40;5.27;;;9.60;99.90;;;;;;5050385;28;20459;-73
2022/04/05 06:40:05;;;;;;;7.40;4.57;;;9.60;99.90;;;;;;5049061;28;20990;-72
2022/04/05 06:42:32;;;;;;;7.50;5.93;;;9.60;99.90;;;;;;5048799;28;20458;-70
2022/04/05 06:44:59;;;;;;;6.60;4.60;;;9.70;99.90;;;;;;5052878;28;20459;-70
2022/04/05 06:47:26;;;;;;;8.40;4.73;;;9.80;99.90;;;;;;5047219;28;20441;-71
2022/04/05 06:49:53;;;;;;;12.13;4.07;;;9.90;99.90;;;;;;5050773;28;20454;-72
2022/04/05 06:52:21;;;;;;;6.87;5.50;;;9.90;99.90;;;;;;5051198;28;20520;-71
2022/04/05 06:54:47;;;;;;;9.87;5.93;;;9.80;99.90;;;;;;5060910;28;20479;-70
2022/04/05 06:57:14;;;;;;;7.70;5.70;;;9.80;99.90;;;;;;5049796;28;21029;-72
2022/04/05 06:59:41;;;;;;;10.30;5.80;;;9.90;99.90;;;;;;5051277;28;20491;-73
2022/04/05 07:02:09;;;;;;;4.53;3.93;;;10.00;99.90;;;;;;5056580;28;20442;-72
2022/04/05 07:04:36;;;;;;;8.63;5.07;;;10.00;99.90;;;;;;5057909;28;20496;-73
2022/04/05 07:07:03;;;;;;;6.40;4.43;;;9.90;99.90;;;;;;5056435;28;20434;-73
2022/04/05 07:09:31;;;;;;;9.70;7.90;;;9.90;99.90;;;;;;5055630;28;20442;-72
2022/04/05 07:11:57;;;;;;;6.53;5.10;;;9.90;99.90;;;;;;5053966;28;20477;-71
2022/04/05 07:14:24;;;;;;;7.70;5.27;;;9.80;99.90;;;;;;5060161;28;20526;-73
2022/04/05 07:16:51;;;;;;;11.50;8.70;;;9.90;99.90;;;;;;5055279;28;20849;-74
2022/04/05 07:19:17;;;;;;;9.77;5.20;;;10.00;99.90;;;;;;5054246;28;20442;-72
2022/04/05 07:21:44;;;;;;;8.97;5.80;;;9.90;99.90;;;;;;5058424;28;20474;-70
2022/04/05 07:24:11;;;;;;;11.10;6.40;;;10.00;99.90;;;;;;5059787;28;20508;-71
2022/04/05 07:26:39;;;;;;;6.27;4.60;;;9.90;99.90;;;;;;5059829;28;20468;-72
2022/04/05 07:29:05;;;;;;;10.90;5.00;;;9.90;99.90;;;;;;5060313;28;21020;-72
2022/04/05 07:31:32;;;;;;;8.57;5.00;;;9.80;99.90;;;;;;5065068;28;20449;-72
2022/04/05 07:33:59;;;;;;;9.10;6.00;;;10.00;99.90;;;;;;5057332;28;20539;-71
2022/04/05 07:36:26;;;;;;;8.00;6.67;;;10.00;99.90;;;;;;5059724;28;20474;-71
2022/04/05 07:38:53;;;;;;;7.67;6.80;;;10.10;99.90;;;;;;5060294;28;20494;-71
2022/04/05 07:41:20;;;;;;;7.97;6.13;;;10.10;99.90;;;;;;5065264;28;20476;-73
2022/04/05 07:43:48;;;;;;;9.53;6.00;;;10.20;99.90;;;;;;5059660;28;20532;-71
2022/04/05 07:46:14;;;;;;;9.00;4.20;;;10.10;99.90;;;;;;5060138;28;20459;-72
2022/04/05 07:48:41;;;;;;;5.40;3.93;;;10.10;99.90;;;;;;5057880;28;20467;-73
2022/04/05 07:51:08;;;;;;;8.13;5.43;;;10.20;99.90;;;;;;5058933;28;20711;-73
2022/04/05 07:53:35;;;;;;;14.80;4.70;;;10.00;99.90;;;;;;5051874;28;20570;-71
2022/04/05 07:56:01;;;;;;;8.07;4.27;;;10.10;99.90;;;;;;5047423;28;20936;-74
2022/04/05 07:58:28;;;;;;;8.47;6.23;;;10.10;99.90;;;;;;5049424;28;20458;-73
2022/04/05 08:00:56;;;;;;;8.47;5.97;;;10.20;99.90;;;;;;5053476;28;20461;-73
2022/04/05 08:03:23;;;;;;;9.43;6.50;;;10.30;99.90;;;;;;5052931;28;20459;-72
2022/04/05 08:05:50;;;;;;;9.50;6.70;;;10.40;99.90;;;;;;5050983;28;20990;-73
2022/04/05 08:08:17;;;;;;;10.90;7.50;;;10.50;99.90;;;;;;5046816;28;20457;-73
2022/04/05 08:10:44;;;;;;;12.43;7.77;;;10.60;99.90;;;;;;5048800;28;20564;-72
2022/04/05 08:13:10;;;;;;;10.97;6.03;;;10.50;99.90;;;;;;5053551;28;20461;-73
2022/04/05 08:15:39;;;;;;;11.17;6.30;;;10.40;99.90;;;;;;5052832;28;21253;-72
2022/04/05 08:18:08;;;;;;;10.30;6.70;;;10.40;99.90;;;;;;5052572;28;21388;-73
2022/04/05 08:20:36;;;;;;;12.27;7.40;;;10.40;99.90;;;;;;5052931;28;20485;-74
2022/04/05 08:23:03;;;;;;;14.80;7.57;;;10.50;99.90;;;;;;5047218;28;20450;-72
2022/04/05 08:25:31;;;;;;;8.07;5.83;;;10.50;99.90;;;;;;5052486;28;20486;-71
2022/04/05 08:27:58;;;;;;;7.80;5.67;;;10.40;99.90;;;;;;5052590;28;20465;-72
2022/04/05 08:30:25;;;;;;;11.70;9.10;;;10.50;99.90;;;;;;5050713;22;20513;-71
2022/04/05 08:32:51;;;;;;;11.43;7.77;;;10.50;99.90;;;;;;5027280;28;20474;-70
2022/04/05 08:35:21;;;;;;;18.27;8.10;;;10.60;99.90;;;;;;5033416;28;20576;-72
2022/04/05 08:37:50;;;;;;;10.50;6.40;;;10.60;99.90;;;;;;5041743;28;20514;-71
2022/04/05 08:40:19;;;;;;;14.53;9.03;;;10.60;99.90;;;;;;5033032;28;20491;-71
2022/04/05 08:42:48;;;;;;;9.67;6.53;;;10.60;99.90;;;;;;5025652;28;20545;-71
2022/04/05 08:45:16;;;;;;;10.67;6.63;;;10.70;99.90;;;;;;5035913;28;20952;-71
2022/04/05 08:47:46;;;;;;;12.93;8.63;;;10.70;99.90;;;;;;5039469;28;20499;-70
2022/04/05 08:50:14;;;;;;;14.57;7.27;;;10.70;99.90;;;;;;5024272;28;20488;-70
2022/04/05 08:52:43;;;;;;;25.63;9.87;;;10.60;99.90;;;;;;5038155;28;20839;-70
2022/04/05 08:55:10;;;;;;;13.80;8.40;;;10.70;99.90;;;;;;5030490;28;20618;-69
2022/04/05 08:57:36;;;;;;;14.53;7.20;;;10.70;99.90;;;;;;5026900;28;20552;-71
2022/04/05 09:00:06;;;;;;;15.30;7.67;;;10.70;99.90;;;;;;5012396;28;21102;-69
2022/04/05 09:02:33;;;;;;;11.37;8.60;;;10.70;99.90;;;;;;5028845;28;20587;-72
2022/04/05 09:05:00;;;;;;;8.50;6.23;;;10.90;99.90;;;;;;5028640;28;20470;-71
2022/04/05 09:07:32;;;;;;;12.90;7.30;;;11.00;99.90;;;;;;5028612;28;20467;-71
2022/04/05 09:10:12;;;;;;;11.80;6.90;;;11.00;99.90;;;;;;5018042;28;20483;-71
2022/04/05 09:12:43;;;;;;;8.50;4.97;;;11.00;99.90;;;;;;5027058;28;20526;-72
2022/04/05 09:15:12;;;;;;;13.33;7.20;;;11.00;99.90;;;;;;5031034;28;20483;-71
2022/04/05 09:17:42;;;;;;;11.17;6.73;;;11.00;99.90;;;;;;5024696;28;20463;-70
2022/04/05 09:20:09;;;;;;;9.67;6.07;;;11.10;99.90;;;;;;5022453;28;21091;-70
2022/04/05 09:22:36;;;;;;;10.97;6.47;;;11.20;99.90;;;;;;5030314;28;20841;-72
2022/04/05 09:25:04;;;;;;;7.00;5.00;;;11.20;99.90;;;;;;5023378;28;20466;-71
2022/04/05 09:27:45;;;;;;;10.33;6.30;;;11.20;99.90;;;;;;5023776;28;20821;-67
2022/04/05 09:30:13;;;;;;;10.40;6.97;;;11.20;99.90;;;;;;5028217;28;20470;-68
2022/04/05 09:32:42;;;;;;;16.53;7.63;;;11.40;99.90;;;;;;5011092;28;20501;-68
2022/04/05 09:35:10;;;;;;;11.30;7.17;;;11.30;99.90;;;;;;5047613;28;20601;-70
2022/04/05 09:37:38;;;;;;;14.17;9.90;;;11.40;99.90;;;;;;5046110;28;20516;-69
2022/04/05 09:40:32;;;;;;;11.97;7.20;;;11.50;99.90;;;;;;5051690;28;21063;-68
2022/04/05 09:43:04;;;;;;;10.20;6.47;;;11.70;99.90;;;;;;5004799;28;20539;-68
2022/04/05 09:45:49;;;;;;;7.97;6.37;;;11.70;99.90;;;;;;5049422;28;20550;-69
2022/04/05 09:48:17;;;;;;;7.77;5.63;;;11.70;99.90;;;;;;5054373;28;20829;-69
2022/04/05 09:51:02;;;;;;;8.93;5.80;;;11.70;99.90;;;;;;5049869;28;20463;-69
2022/04/05 09:53:41;;;;;;;10.93;5.87;;;11.60;99.90;;;;;;5052243;28;20491;-69
2022/04/05 09:56:10;;;;;;;10.37;6.33;;;11.60;99.90;;;;;;5048023;28;20511;-68
2022/04/05 09:58:44;;;;;;;9.20;5.87;;;11.60;99.90;;;;;;5054128;28;20517;-68
2022/04/05 10:01:11;;;;;;;7.37;4.90;;;11.60;99.90;;;;;;5056568;28;20473;-67
2022/04/05 10:03:39;;;;;;;7.60;6.83;;;11.60;99.90;;;;;;5050905;28;21022;-68
2022/04/05 10:06:06;;;;;;;15.70;6.93;;;11.70;99.90;;;;;;5062186;28;20772;-68
2022/04/05 10:08:34;;;;;;;7.00;4.30;;;11.90;99.90;;;;;;5054470;28;20860;-68
2022/04/05 10:11:02;;;;;;;7.17;3.97;;;12.00;99.90;;;;;;5054411;28;20477;-68
2022/04/05 10:13:29;;;;;;;9.20;4.57;;;12.20;99.90;;;;;;5059171;28;20454;-69
2022/04/05 10:16:00;;;;;;;5.73;4.30;;;12.40;99.90;;;;;;5057280;28;20478;-68
2022/04/05 10:18:33;;;;;;;7.63;5.10;;;12.20;99.90;;;;;;5060546;28;20458;-68
2022/04/05 10:21:01;;;;;;;7.33;5.80;;;12.30;99.90;;;;;;5059509;28;20470;-69
2022/04/05 10:23:29;;;;;;;7.23;5.00;;;12.30;99.90;;;;;;5056130;28;20462;-68
2022/04/05 10:25:57;;;;;;;10.10;5.77;;;12.40;99.90;;;;;;5057089;28;20466;-69
2022/04/05 10:28:27;;;;;;;3.20;2.73;;;12.60;99.90;;;;;;5058676;28;20458;-69
2022/04/05 10:31:03;;;;;;;6.43;4.53;;;12.70;99.90;;;;;;5056707;28;20482;-68
2022/04/05 10:33:38;;;;;;;6.43;4.07;;;12.90;99.90;;;;;;5060328;28;20876;-67
2022/04/05 10:36:08;;;;;;;6.70;4.80;;;13.10;99.90;;;;;;5054751;28;20482;-69
2022/04/05 10:38:35;;;;;;;5.77;4.73;;;13.20;99.90;;;;;;5050677;28;20459;-69
2022/04/05 10:41:16;;;;;;;7.20;4.50;;;13.50;99.90;;;;;;5059514;28;20857;-69
2022/04/05 10:43:44;;;;;;;7.10;4.50;;;13.80;99.90;;;;;;5057625;28;20493;-68
2022/04/05 10:46:12;;;;;;;6.40;4.30;;;14.10;99.90;;;;;;5050872;28;20454;-68
2022/04/05 10:48:55;;;;;;;8.97;5.40;;;14.20;99.90;;;;;;5058549;28;20463;-69
2022/04/05 10:51:35;;;;;;;6.27;4.60;;;14.20;99.90;;;;;;5055447;28;20474;-68
2022/04/05 10:54:21;;;;;;;6.23;4.10;;;14.10;99.90;;;;;;5053478;28;20463;-68
2022/04/05 10:57:20;;;;;;;6.70;5.10;;;13.60;99.90;;;;;;5055052;28;21022;-72
2022/04/05 10:59:48;;;;;;;7.30;5.13;;;13.80;99.90;;;;;;4974596;28;20522;-69
2022/04/05 11:02:35;;;;;;;6.00;4.67;;;14.00;99.90;;;;;;5036926;28;20460;-68
2022/04/05 11:05:18;;;;;;;8.83;6.07;;;13.70;99.90;;;;;;5060432;28;20454;-67
2022/04/05 11:08:06;;;;;;;6.23;3.77;;;13.40;99.90;;;;;;5046232;28;20865;-68
2022/04/05 11:10:51;;;;;;;8.00;6.70;;;13.30;99.90;;;;;;5049012;28;20479;-69
2022/04/05 11:13:42;;;;;;;6.63;4.83;;;13.30;99.90;;;;;;5056118;28;20464;-71
2022/04/05 11:16:11;;;;;;;6.47;5.60;;;13.30;99.90;;;;;;5055879;28;20512;-69
2022/04/05 11:18:41;;;;;;;11.00;4.87;;;13.40;99.90;;;;;;5055279;28;20951;-69
2022/04/05 11:21:09;;;;;;;5.83;4.70;;;13.50;99.90;;;;;;5056338;28;21742;-70
2022/04/05 11:23:50;;;;;;;7.60;3.87;;;13.60;99.90;;;;;;5057671;28;20889;-69
2022/04/05 11:26:25;;;;;;;7.80;4.10;;;13.50;99.90;;;;;;5055530;28;21361;-69
2022/04/05 11:28:52;;;;;;;4.87;4.07;;;13.40;99.90;;;;;;5058134;28;20458;-69
2022/04/05 11:31:31;;;;;;;5.60;3.47;;;13.60;99.90;;;;;;5055668;28;20529;-68
2022/04/05 11:33:59;;;;;;;8.73;5.07;;;13.70;99.90;;;;;;5054564;28;20460;-69
2022/04/05 11:36:26;;;;;;;3.20;2.90;;;13.50;99.90;;;;;;5055410;28;20486;-68
2022/04/05 11:38:56;;;;;;;5.70;3.30;;;13.20;99.90;;;;;;5053075;28;20893;-69
2022/04/05 11:41:24;;;;;;;4.33;3.93;;;13.00;99.90;;;;;;5047381;28;20894;-69
2022/04/05 11:43:52;;;;;;;3.80;3.37;;;12.60;99.90;;;;;;5053760;28;20484;-70
2022/04/05 11:46:20;;;;;;;5.27;3.90;;;12.60;99.90;;;;;;5055156;28;20497;-69
2022/04/05 11:48:49;;;;;;;4.87;4.10;;;12.90;99.90;;;;;;5057148;28;21058;-70
2022/04/05 11:51:19;;;;;;;6.43;4.30;;;13.00;99.90;;;;;;5047661;28;20486;-70
2022/04/05 11:53:47;;;;;;;5.23;3.83;;;13.10;99.90;;;;;;5049626;28;20496;-69
2022/04/05 11:56:20;;;;;;;5.57;4.20;;;13.20;99.90;;;;;;5052485;28;20489;-69
2022/04/05 11:58:49;;;;;;;3.23;2.93;;;13.10;99.90;;;;;;5046171;28;20913;-70
2022/04/05 12:01:22;;;;;;;5.90;4.07;;;12.80;99.90;;;;;;5045199;28;20486;-67
2022/04/05 12:03:52;;;;;;;5.13;3.50;;;12.80;99.90;;;;;;5049899;28;21005;-70
2022/04/05 12:06:22;;;;;;;5.77;3.20;;;12.80;99.90;;;;;;5051448;28;20554;-70
2022/04/05 12:08:50;;;;;;;3.93;3.27;;;12.90;99.90;;;;;;5048279;28;20837;-69
2022/04/05 12:11:19;;;;;;;5.77;3.20;;;13.10;99.90;;;;;;5054733;28;20475;-68
2022/04/05 12:13:54;;;;;;;3.83;3.23;;;13.10;99.90;;;;;;5047815;28;20536;-69
2022/04/05 12:16:22;;;;;;;3.73;3.30;;;13.20;99.90;;;;;;5050823;28;20903;-71
2022/04/05 12:18:49;;;;;;;3.40;3.20;;;13.40;99.90;;;;;;5050704;28;20474;-70
2022/04/05 12:21:15;;;;;;;9.03;3.53;;;13.30;99.90;;;;;;5050783;28;20855;-69
2022/04/05 12:23:45;;;;;;;3.40;2.53;;;13.30;99.90;;;;;;5055089;28;20462;-69
2022/04/05 12:26:14;;;;;;;3.50;3.17;;;13.20;99.90;;;;;;5048608;28;20451;-67
2022/04/05 12:28:43;;;;;;;9.10;2.90;;;13.20;99.90;;;;;;5049914;28;20471;-68
2022/04/05 12:31:16;;;;;;;5.43;2.97;;;13.40;99.90;;;;;;5048059;28;20494;-70
2022/04/05 12:33:54;;;;;;;3.77;3.20;;;13.50;99.90;;;;;;5046033;28;20469;-69
2022/04/05 12:36:21;;;;;;;3.37;2.10;;;14.00;99.90;;;;;;5046224;28;20482;-68
2022/04/05 12:38:50;;;;;;;4.10;3.50;;;14.00;99.90;;;;;;5048088;28;20474;-67
2022/04/05 12:41:18;;;;;;;3.10;2.40;;;14.20;99.90;;;;;;5057013;28;20497;-68
2022/04/05 12:43:46;;;;;;;3.80;2.17;;;14.00;99.90;;;;;;5038893;28;20502;-68
2022/04/05 12:46:15;;;;;;;2.57;1.90;;;14.10;99.90;;;;;;5053833;28;20453;-68
2022/04/05 12:48:42;;;;;;;3.40;2.53;;;13.70;99.90;;;;;;5043777;28;20742;-68
2022/04/05 12:51:09;;;;;;;3.87;3.17;;;13.50;99.90;;;;;;5051549;28;20568;-68
2022/04/05 12:53:38;;;;;;;2.53;2.23;;;14.00;99.90;;;;;;5054501;28;20463;-68
2022/04/05 12:56:09;;;;;;;2.00;1.80;;;14.70;99.90;;;;;;5053209;28;20833;-67
2022/04/05 12:58:38;;;;;;;5.77;2.57;;;15.00;99.90;;;;;;5050683;28;20531;-68